Metar z pełnej godziny Komunikat METAR ze strony awiacja.imgw.pl Metar G00 EPZG METAR EPZG 162200Z 13004KT 8000 NSC M02/M04 Q1016 =